Gulf Shores, Alabama
Current Conditions -  °F | °C
As of 8:55 PM on Wednesday 22 Oct 2014 (Local Time) from KJKA Reporting Station
Clear Clear  
Wind Chill: 62°   Ceiling: Unl
Heat Index: 62°   Visibility: 10mi
Dew Point: 48°   Wind: 5mph
Humidity: 60%   Direction: 10°N
Pressure: 30.07"   Gusts: NA
Location:  30.27°N, 87.7°W
Report Text: KJKA 230155Z AUTO 01004KT 10SM CLR 17/09 A3007 RMK AO2 T01680090
Loading
Personal Weather Stations






























Interactive Weather Map New forecast layout! Learn more

10-Day Weather Forecast

Advertisements
Track Severe Weather on mobile